CDT,Max TemperatureF,Mean TemperatureF,Min TemperatureF,Max Dew PointF,MeanDew PointF,Min DewpointF,Max Humidity, Mean Humidity, Min Humidity, Max Sea Level PressureIn, Mean Sea Level PressureIn, Min Sea Level PressureIn, Max VisibilityMiles, Mean VisibilityMiles, Min VisibilityMiles, Max Wind SpeedMPH, Mean Wind SpeedMPH, Max Gust SpeedMPH,PrecipitationIn, CloudCover, Events, WindDirDegrees
2012-10-1,66,49,32,48,41,28,87,66,34,29.99,29.91,29.82,10,10,10,13,4,20,0.00,2,Rain,326
2012-10-2,69,48,26,46,32,25,100,61,21,29.97,29.87,29.74,10,10,10,15,3,25,0.00,0,,168
2012-10-3,69,51,33,50,40,28,93,64,33,29.98,29.90,29.82,10,9,2,8,3,,0.00,0,,344
2012-10-4,55,44,32,46,39,30,100,85,63,29.96,29.73,29.58,10,8,1,16,6,26,0.07,7,Rain-Snow,193
2012-10-5,37,34,30,37,32,30,100,97,93,30.10,29.88,29.75,10,5,1,15,10,26,0.12,8,Rain-Snow,279
2012-10-6,44,35,24,34,28,21,100,77,46,30.23,30.17,30.11,10,10,10,15,8,23,0.00,6,,324
2012-10-7,50,37,24,28,24,21,93,64,34,30.11,29.92,29.77,10,10,10,12,5,22,0.00,4,,193
2012-10-8,46,42,37,39,30,21,100,68,45,29.77,29.62,29.52,10,9,4,9,4,,0.36,7,Rain,183
2012-10-9,42,37,32,41,36,30,100,97,93,29.87,29.68,29.57,10,9,3,12,4,21,0.03,8,Rain,278
2012-10-10,42,34,26,39,32,27,100,91,61,29.96,29.92,29.87,10,10,5,9,3,,0.01,7,Rain,248
2012-10-11,42,34,26,37,31,25,100,91,70,30.33,30.07,29.90,10,10,1,13,3,23,0.06,6,Rain-Snow,293
2012-10-12,44,30,17,34,20,12,100,69,29,30.40,30.26,30.00,10,10,10,10,2,18,0.00,3,,169
2012-10-13,51,40,26,39,30,19,93,63,39,29.99,29.81,29.72,10,10,10,8,3,,0.00,7,,161
2012-10-14,55,40,26,50,34,23,100,87,71,29.89,29.85,29.82,10,7,0,6,0,,0.00,5,Fog,334
2012-10-15,57,39,21,43,31,19,100,73,41,29.92,29.84,29.71,10,10,10,8,1,,0.00,2,,160
2012-10-16,69,52,35,46,39,32,93,67,33,29.69,29.49,29.38,10,10,10,8,4,,0.00,1,,180
2012-10-17,53,44,35,50,44,34,100,91,82,29.38,29.24,29.10,10,9,4,6,1,,0.02,4,Rain,120
2012-10-18,51,46,42,52,48,39,100,97,87,29.45,29.25,29.14,10,7,2,7,2,9,0.79,8,Rain,13
2012-10-19,51,40,30,50,44,30,100,98,93,29.75,29.65,29.47,10,10,4,6,1,,0.05,7,Rain,63
2012-10-20,55,40,26,52,34,27,100,91,51,29.80,29.76,29.73,10,7,0,7,0,,0.00,3,Fog,168
2012-10-21,57,42,28,55,41,27,100,93,77,29.99,29.86,29.80,10,7,1,7,1,,0.08,3,Rain,168
2012-10-22,55,47,39,54,45,36,100,89,76,30.14,30.08,30.00,10,10,7,8,4,16,0.00,3,,14
2012-10-23,48,45,42,48,44,39,100,96,81,30.04,29.87,29.74,10,8,2,5,1,,0.50,8,Rain-Thunderstorm,118
2012-10-24,51,46,39,50,47,39,100,98,93,29.91,29.85,29.75,10,8,2,8,2,,0.03,8,Rain,300
2012-10-25,39,34,30,39,34,30,100,99,93,29.91,29.83,29.78,10,7,1,9,5,17,0.53,8,Rain-Snow,293
2012-10-26,33,28,24,32,29,21,100,95,80,30.23,30.12,29.90,10,9,1,12,7,22,0.00,7,Snow,242
2012-10-27,35,29,23,32,26,21,100,89,75,30.33,30.27,30.23,10,10,7,8,2,,0.00,7,,229
2012-10-28,28,24,21,28,24,18,100,94,80,30.36,30.34,30.31,10,9,0,5,0,,0.04,8,Snow,27
2012-10-29,46,36,24,41,30,23,100,90,57,30.36,30.34,30.32,10,9,2,5,0,,0.00,7,Snow,151
2012-10-30,44,32,17,36,25,16,100,85,66,30.33,30.25,30.13,10,10,7,7,1,,0.00,0,,46
2012-10-31,42,27,12,36,23,9,100,85,65,30.13,30.02,29.92,10,10,5,7,1,,0.00,3,Snow,1